• Join FlightAware (Why Join?)
  • Login
  • US Flag 
03:20PM EST


 

Airport Tracker/Info


-or-


 

Live Flight TrackerFlight Track Log ✈ KAP5 ✈ 28-Jun-2013 ✈ KBOS - KACK

Flight Track Log - Related Links

Times and Time Zones

All times are in EDT time to prevent confusion due to time zone crossing. See the KAP5 flight status page for this flight to view local times or setup timezone preferences in your user account.

Time Position Orientation Groundspeed Altitude Reporting Facility
EDT Latitude Longitude Course Direction KTS MPH feet Rate Location/Type
05:57PM 42.3333 -71.0333 216° Southwest 108 124 1,200  Level KA90
05:58PM 42.3167 -71.0667 236° Southwest 114 131 1,800 600 Climbing KA90
05:59PM 42.3167 -71.1000 270° West 114 131 2,400 660 Climbing KA90
06:00PM 42.3333 -71.1500 294° West 110 127 3,200 660 Climbing KA90
06:01PM 42.3000 -71.1500 180° South 94 108 3,800 600 Climbing KA90
06:02PM 42.2833 -71.1333 144° Southeast 104 120 4,400 540 Climbing KA90
06:03PM 42.2500 -71.1333 180° South 113 130 4,900 300 Climbing KA90
06:04PM 42.2167 -71.1000 143° Southeast 145 167 5,000  Climbing KA90
06:05PM 42.2167 -71.0500 90° East 155 178 5,000  Level KA90
06:07PM 42.2000 -70.9833 109° East 144 166 5,000  Level KA90
06:08PM 42.1833 -70.9333 114° Southeast 151 174 5,000  Level KA90
06:09PM 42.1833 -70.8833 90° East 156 180 5,000  Level KA90
06:10PM 42.1667 -70.8167 144° Southeast 152 175 5,000  Level KA90
06:11PM 42.1667 -70.7667 90° East 149 171 5,000  Level KA90
06:12PM 42.1500 -70.7167 114° Southeast 147 169 5,000  Level KA90
06:14PM 42.1210 -70.6420 103° East  Level FlightAware Approximate
06:21PM 42.0696 -70.3373 103° East  Level FlightAware Approximate
06:22PM 42.0621 -70.2939 103° East  Level FlightAware Approximate
06:23PM 42.0546 -70.2504 103° East  Level FlightAware Approximate
06:24PM 42.0471 -70.2070 103° East  Level FlightAware Approximate
06:25PM 42.0395 -70.1636 103° East  Level FlightAware Approximate
06:26PM 42.0319 -70.1202 103° East  Level FlightAware Approximate
06:27PM 42.0243 -70.0768 103° East  Level FlightAware Approximate
06:28PM 42.0167 -70.0334 103° East  Level FlightAware Approximate
06:29PM 41.9836 -70.0333 180° South  Level FlightAware Approximate
06:30PM 41.9505 -70.0333 180° South  Level FlightAware Approximate
06:31PM 41.9174 -70.0333 180° South  Level FlightAware Approximate
06:32PM 41.8843 -70.0333 180° South  Level FlightAware Approximate
06:33PM 41.8511 -70.0333 180° South  Level FlightAware Approximate
06:34PM 41.8180 -70.0333 180° South  Level FlightAware Approximate
06:35PM 41.7849 -70.0333 180° South  Level FlightAware Approximate
06:36PM 41.7518 -70.0333 180° South  Level FlightAware Approximate
06:37PM 41.7187 -70.0333 180° South  Level FlightAware Approximate
06:38PM 41.6855 -70.0333 180° South  Level FlightAware Approximate
06:39PM 41.6524 -70.0333 180° South  Level FlightAware Approximate
06:40PM 41.6193 -70.0333 180° South  Level FlightAware Approximate
06:41PM 41.5864 -70.0361 189° South  Level FlightAware Approximate
06:42PM 41.5536 -70.0426 189° South  Level FlightAware Approximate
06:43PM 41.5209 -70.0492 189° South  Level FlightAware Approximate
06:44PM 41.4878 -70.0500 180° South  Level FlightAware Approximate
06:45PM 41.4547 -70.0500 180° South  Level FlightAware Approximate
06:46PM 41.4216 -70.0500 180° South  Level FlightAware Approximate
06:47PM 41.3885 -70.0500 180° South  Level FlightAware Approximate
06:48PM 41.3553 -70.0500 180° South  Level FlightAware Approximate
06:49PM 41.3222 -70.0500 180° South  Level FlightAware Approximate
06:50PM 41.2891 -70.0500 180° South  Level FlightAware Approximate
06:51PM 41.2560 -70.0500 180° South  Level FlightAware Approximate